Time;durP1;ratioP1;P1;durP2;ratioP2;P2;SDS_P1;SDS_P2;PMS_P1;PMS_P2;Temp;Humidity;BMP_temperature;BMP_pressure;BME280_temperature;BME280_humidity;BME280_pressure;Samples;Min_cycle;Max_cycle;Signal;HPM_P1;HPM_P2
2022/07/10 00:04:30;;;;;;;2.07;1.40;;;;;;;18.34;58.99;97284.97;10394190;28;20049;-25
2022/07/10 00:09:31;;;;;;;1.70;1.60;;;;;;;18.34;58.77;97287.50;10396248;28;20037;-26
2022/07/10 00:14:32;;;;;;;2.72;1.92;;;;;;;18.34;59.15;97285.81;10398618;28;20292;-23
2022/07/10 00:19:33;;;;;;;2.92;1.80;;;;;;;18.33;59.44;97290.88;10390370;28;20480;-24
2022/07/10 00:24:33;;;;;;;4.37;1.40;;;;;;;18.35;59.60;97277.34;10397858;28;20044;-23
2022/07/10 00:29:33;;;;;;;3.13;1.48;;;;;;;18.31;60.03;97274.78;10400143;28;20303;-24
2022/07/10 00:34:35;;;;;;;3.17;1.50;;;;;;;18.30;59.86;97268.00;10390949;28;20029;-24
2022/07/10 00:39:35;;;;;;;3.03;2.03;;;;;;;18.18;60.01;97286.44;10393874;28;20110;-24
2022/07/10 00:44:36;;;;;;;1.63;1.37;;;;;;;18.09;60.24;97283.81;10399669;28;20571;-24
2022/07/10 00:49:38;;;;;;;2.38;1.90;;;;;;;18.06;60.68;97277.88;10396367;28;20285;-24
2022/07/10 00:54:43;;;;;;;2.00;1.85;;;;;;;18.04;60.66;97279.53;10393550;28;20034;-24
2022/07/10 00:59:48;;;;;;;2.03;1.77;;;;;;;18.03;60.87;97265.19;10394240;28;20042;-24
2022/07/10 01:04:48;;;;;;;6.18;1.55;;;;;;;18.07;60.80;97269.47;10394118;28;20137;-25
2022/07/10 01:09:49;;;;;;;3.73;1.77;;;;;;;18.08;60.65;97271.16;10391569;28;20045;-23
2022/07/10 01:14:49;;;;;;;3.00;1.75;;;;;;;18.11;60.07;97263.56;10390114;28;20040;-24
2022/07/10 01:19:50;;;;;;;4.72;1.70;;;;;;;18.16;60.31;97254.34;10391333;28;20044;-24
2022/07/10 01:24:50;;;;;;;5.40;1.70;;;;;;;18.15;60.25;97250.94;10392855;28;20049;-25
2022/07/10 01:29:52;;;;;;;2.50;1.60;;;;;;;18.14;60.60;97256.00;10394895;28;20060;-22
2022/07/10 01:34:53;;;;;;;4.00;1.60;;;;;;;18.17;59.82;97256.88;10392111;28;20108;-25
2022/07/10 01:39:53;;;;;;;2.70;1.33;;;;;;;18.17;59.82;97246.75;10393731;28;20496;-22
2022/07/10 01:44:54;;;;;;;2.93;1.57;;;;;;;18.10;60.13;97250.09;10397430;28;20310;-24
2022/07/10 01:49:55;;;;;;;3.03;1.70;;;;;;;18.13;60.42;97254.31;10393640;28;20403;-23
2022/07/10 01:54:55;;;;;;;2.90;1.40;;;;;;;18.08;60.98;97250.88;10393136;28;20176;-25
2022/07/10 01:59:56;;;;;;;3.25;1.58;;;;;;;18.03;60.82;97253.38;10393108;28;20033;-23
2022/07/10 02:04:57;;;;;;;2.38;1.95;;;;;;;17.99;61.12;97250.81;10390756;28;20033;-23
2022/07/10 02:09:57;;;;;;;5.32;1.98;;;;;;;17.89;61.05;97249.84;10399786;28;20029;-23
2022/07/10 02:15:00;;;;;;;4.20;1.70;;;;;;;17.90;60.60;97260.84;10392393;28;20113;-24
2022/07/10 02:20:00;;;;;;;2.80;1.50;;;;;;;17.86;61.27;97264.16;10388528;28;20769;-23
2022/07/10 02:25:00;;;;;;;2.00;1.80;;;;;;;17.84;61.46;97281.03;10396597;28;20026;-24
2022/07/10 02:30:01;;;;;;;4.50;2.37;;;;;;;17.83;61.45;97281.88;10392438;28;20041;-23
2022/07/10 02:35:01;;;;;;;2.17;1.77;;;;;;;17.79;61.78;97277.59;10391958;28;20057;-22
2022/07/10 02:40:02;;;;;;;3.60;1.53;;;;;;;17.80;61.90;97284.34;10398815;28;20033;-23
2022/07/10 02:45:03;;;;;;;2.45;1.50;;;;;;;17.82;61.75;97277.63;10404419;28;20431;-25
2022/07/10 02:50:03;;;;;;;2.28;1.58;;;;;;;17.85;61.79;97277.66;10399568;28;20033;-24
2022/07/10 02:55:04;;;;;;;2.55;1.85;;;;;;;17.84;61.55;97273.44;10394901;28;20029;-24
2022/07/10 03:00:05;;;;;;;2.83;1.50;;;;;;;17.76;62.14;97257.28;10398752;28;20608;-24
2022/07/10 03:05:06;;;;;;;4.30;1.88;;;;;;;17.83;61.88;97259.91;10397342;28;20041;-25
2022/07/10 03:10:07;;;;;;;2.05;1.73;;;;;;;17.79;62.06;97267.44;10400578;28;20029;-24
2022/07/10 03:15:09;;;;;;;2.58;1.50;;;;;;;17.80;61.92;97259.88;10398646;28;20029;-24
2022/07/10 03:20:10;;;;;;;2.08;1.75;;;;;;;17.70;62.06;97249.63;10390788;28;20399;-23
2022/07/10 03:25:11;;;;;;;3.55;1.70;;;;;;;17.72;62.07;97256.41;10398556;28;20477;-24
2022/07/10 03:30:11;;;;;;;2.40;1.70;;;;;;;17.71;61.95;97263.97;10400848;28;20091;-24
2022/07/10 03:35:11;;;;;;;4.50;2.20;;;;;;;17.71;62.30;97258.91;10397718;28;20025;-25
2022/07/10 03:40:12;;;;;;;2.83;2.43;;;;;;;17.72;62.21;97255.53;10404349;28;20037;-25
2022/07/10 03:45:12;;;;;;;3.30;2.33;;;;;;;17.66;62.30;97250.44;10397036;28;20037;-24
2022/07/10 03:50:13;;;;;;;4.50;2.30;;;;;;;17.62;62.33;97249.53;10396402;28;20026;-24
2022/07/10 03:55:13;;;;;;;4.03;1.80;;;;;;;17.64;62.25;97257.13;10397826;28;20391;-23
2022/07/10 04:00:14;;;;;;;3.97;2.20;;;;;;;17.62;62.19;97256.28;10392094;28;20793;-23
2022/07/10 04:05:14;;;;;;;2.70;2.10;;;;;;;17.64;62.39;97257.13;10389588;28;20059;-22
2022/07/10 04:10:15;;;;;;;6.30;2.17;;;;;;;17.68;62.35;97258.88;10399912;28;20044;-24
2022/07/10 04:15:16;;;;;;;2.92;2.17;;;;;;;17.60;62.25;97256.28;10394063;28;20056;-23
2022/07/10 04:20:17;;;;;;;3.45;1.88;;;;;;;17.59;62.86;97256.25;10395702;28;20116;-24
2022/07/10 04:25:18;;;;;;;2.20;2.00;;;;;;;17.62;62.94;97264.72;10387806;28;20621;-24
2022/07/10 04:30:18;;;;;;;2.63;1.90;;;;;;;17.58;63.13;97262.16;10394015;28;20096;-25
2022/07/10 04:35:19;;;;;;;2.67;2.47;;;;;;;17.60;62.98;97248.69;10399307;28;20296;-23
2022/07/10 04:40:19;;;;;;;3.77;3.37;;;;;;;17.66;62.98;97245.38;10369392;28;20033;-24
2022/07/10 04:45:19;;;;;;;6.17;2.33;;;;;;;17.75;62.72;97260.66;10341222;28;20033;-26
2022/07/10 04:50:20;;;;;;;4.37;3.33;;;;;;;17.86;62.29;97269.22;10349103;28;20053;-25
2022/07/10 04:55:21;;;;;;;2.70;2.50;;;;;;;17.81;62.76;97270.84;10351934;28;20405;-26
2022/07/10 05:00:21;;;;;;;3.10;2.80;;;;;;;17.81;62.92;97276.78;10349152;28;20124;-26
2022/07/10 05:05:22;;;;;;;4.90;3.35;;;;;;;17.78;63.07;97278.41;10344976;28;20030;-23
2022/07/10 05:10:22;;;;;;;3.47;3.17;;;;;;;17.87;63.00;97278.53;10374508;28;20128;-24
2022/07/10 05:15:23;;;;;;;2.47;2.28;;;;;;;17.91;62.99;97275.19;10391305;28;20283;-22
2022/07/10 05:20:23;;;;;;;3.33;2.67;;;;;;;17.88;62.94;97282.75;10396825;28;20152;-23
2022/07/10 05:25:26;;;;;;;4.13;2.90;;;;;;;17.89;63.38;97281.91;10393973;28;20045;-23
2022/07/10 05:30:26;;;;;;;5.45;3.53;;;;;;;17.89;63.33;97284.44;10396516;28;20061;-25
2022/07/10 05:35:27;;;;;;;4.00;3.43;;;;;;;17.87;63.83;97293.72;10389888;28;20117;-25
2022/07/10 05:40:27;;;;;;;6.32;3.80;;;;;;;17.90;63.92;97292.06;10393893;28;20286;-23
2022/07/10 05:45:27;;;;;;;3.73;2.83;;;;;;;17.99;63.50;97301.47;10391183;28;20029;-25
2022/07/10 05:50:28;;;;;;;3.83;3.07;;;;;;;18.02;63.31;97299.81;10395001;28;20489;-23
2022/07/10 05:55:28;;;;;;;2.97;2.67;;;;;;;17.78;63.31;97270.81;10386842;28;20375;-26
2022/07/10 06:00:29;;;;;;;5.20;2.93;;;;;;;17.96;63.21;97287.09;10400875;28;20499;-24
2022/07/10 06:05:29;;;;;;;2.70;2.50;;;;;;;18.01;63.01;97295.56;10397262;28;20484;-24
2022/07/10 06:10:29;;;;;;;2.57;2.30;;;;;;;18.39;62.13;97295.97;10389992;28;20613;-23
2022/07/10 06:15:30;;;;;;;4.82;2.50;;;;;;;18.26;62.69;97299.22;10399606;28;20026;-23
2022/07/10 06:20:31;;;;;;;2.50;2.30;;;;;;;18.29;62.63;97306.84;10396394;28;20034;-23
2022/07/10 06:25:31;;;;;;;3.63;2.63;;;;;;;18.18;63.55;97303.34;10399564;28;20088;-24
2022/07/10 06:30:31;;;;;;;6.13;2.63;;;;;;;18.47;62.90;97301.97;10402139;28;20042;-24
2022/07/10 06:35:32;;;;;;;4.30;3.07;;;;;;;18.39;64.14;97280.78;10401260;28;20028;-21
2022/07/10 06:40:37;;;;;;;3.45;2.60;;;;;;;18.56;62.48;97302.06;10402883;28;20029;-23
2022/07/10 06:45:38;;;;;;;5.47;2.72;;;;;;;18.74;62.90;97309.84;10400252;28;20037;-22
2022/07/10 06:50:39;;;;;;;3.28;2.70;;;;;;;18.90;62.58;97314.19;10399449;28;20048;-22
2022/07/10 06:55:39;;;;;;;4.90;2.33;;;;;;;18.88;61.53;97318.41;10397534;28;20419;-23
2022/07/10 07:00:40;;;;;;;3.17;2.57;;;;;;;18.82;61.10;97321.75;10399782;28;20253;-23
2022/07/10 07:05:40;;;;;;;3.17;2.03;;;;;;;18.78;61.13;97325.09;10395247;28;20293;-24
2022/07/10 07:10:40;;;;;;;2.73;2.00;;;;;;;18.78;60.90;97324.25;10401806;28;20292;-22
2022/07/10 07:15:42;;;;;;;2.53;2.17;;;;;;;18.78;60.94;97332.72;10397550;28;20288;-23
2022/07/10 07:26:01;;;;;;;3.15;2.15;;;;;;;18.78;60.93;97325.09;10394775;28;20044;-27
2022/07/10 07:31:02;;;;;;;6.90;2.60;;;;;;;18.79;61.27;97333.56;10401659;28;20392;-24
2022/07/10 07:36:02;;;;;;;2.40;1.90;;;;;;;18.81;61.06;97329.34;10387847;28;20275;-23
2022/07/10 07:41:03;;;;;;;2.22;2.00;;;;;;;18.86;62.18;97330.22;10399750;28;20045;-23
2022/07/10 07:46:03;;;;;;;2.00;1.80;;;;;;;19.03;62.12;97321.94;10392769;28;20037;-22
2022/07/10 07:51:04;;;;;;;4.47;3.03;;;;;;;19.12;61.56;97329.59;10389913;28;20033;-21
2022/07/10 07:56:04;;;;;;;8.80;2.05;;;;;;;19.07;61.04;97330.38;10393246;28;20156;-23
2022/07/10 08:01:05;;;;;;;7.80;2.28;;;;;;;18.98;60.48;97332.84;10391761;28;20059;-23
2022/07/10 08:06:05;;;;;;;3.50;2.07;;;;;;;18.94;60.66;97326.06;10392596;28;20594;-23
2022/07/10 08:11:06;;;;;;;2.63;2.00;;;;;;;18.92;60.51;97320.97;10369409;28;20083;-23
2022/07/10 08:16:06;;;;;;;2.00;1.85;;;;;;;18.89;60.30;97317.56;10343584;28;20419;-24
2022/07/10 08:21:06;;;;;;;2.57;2.10;;;;;;;18.89;60.87;97315.03;10351219;28;20041;-25
2022/07/10 08:26:07;;;;;;;3.07;1.77;;;;;;;18.89;60.38;97315.03;10395312;28;20288;-21
2022/07/10 08:31:07;;;;;;;2.63;2.05;;;;;;;18.89;60.42;97310.81;10388152;28;20032;-22
2022/07/10 08:36:08;;;;;;;4.40;1.80;;;;;;;18.89;60.44;97308.28;10379177;28;20100;-24
2022/07/10 08:41:12;;;;;;;3.33;2.22;;;;;;;19.01;61.19;97307.53;10397647;28;20488;-23
2022/07/10 08:46:13;;;;;;;3.15;2.13;;;;;;;19.08;61.03;97294.88;10383106;28;20040;-23
2022/07/10 08:51:25;;;;;;;5.63;1.75;;;;;;;19.21;60.76;97306.00;10393532;28;20116;-22
2022/07/10 08:56:25;;;;;;;2.35;2.15;;;;;;;19.13;59.92;97305.06;10390025;28;20033;-23
2022/07/10 09:01:26;;;;;;;3.17;2.10;;;;;;;19.03;60.00;97305.84;10393216;28;20487;-23
2022/07/10 09:06:29;;;;;;;9.73;1.83;;;;;;;18.98;60.11;97307.47;10395083;28;20664;-23
2022/07/10 09:11:30;;;;;;;2.78;1.77;;;;;;;18.97;60.13;97310.84;10397970;28;20097;-23
2022/07/10 09:16:32;;;;;;;5.47;1.60;;;;;;;18.98;60.32;97315.09;10397758;28;20026;-25
2022/07/10 09:21:33;;;;;;;11.05;1.83;;;;;;;18.97;60.21;97308.31;10404666;28;20036;-25
2022/07/10 09:26:36;;;;;;;4.80;2.05;;;;;;;18.97;60.22;97300.72;10397736;28;20037;-26
2022/07/10 09:31:54;;;;;;;2.78;1.98;;;;;;;18.96;60.19;97299.88;10403701;28;20427;-25
2022/07/10 09:36:55;;;;;;;2.53;1.90;;;;;;;18.97;60.36;97300.72;10395967;28;20025;-25
2022/07/10 09:41:55;;;;;;;4.53;2.30;;;;;;;19.17;61.61;97299.19;10393544;28;20043;-22
2022/07/10 09:46:55;;;;;;;7.27;2.60;;;;;;;19.28;60.94;97303.53;10405132;28;20303;-24
2022/07/10 09:51:57;;;;;;;2.55;2.33;;;;;;;19.27;60.00;97291.63;10410563;28;20788;-24
2022/07/10 09:56:57;;;;;;;7.03;1.58;;;;;;;19.18;59.95;97290.72;10411109;28;20095;-25
2022/07/10 10:02:00;;;;;;;6.65;2.10;;;;;;;19.11;60.02;97288.97;10410063;28;20029;-23
2022/07/10 10:07:02;;;;;;;2.28;2.00;;;;;;;19.08;60.71;97291.50;10409042;28;20033;-24
2022/07/10 10:12:07;;;;;;;3.60;2.33;;;;;;;19.10;60.32;97285.56;10400218;28;20484;-24
2022/07/10 10:17:08;;;;;;;4.25;1.95;;;;;;;19.04;59.95;97277.06;10399524;28;20033;-24
2022/07/10 10:22:11;;;;;;;7.25;1.90;;;;;;;19.05;60.19;97283.84;10397175;28;20040;-23
2022/07/10 10:27:12;;;;;;;3.55;1.60;;;;;;;19.01;60.29;97272.00;10396547;28;20034;-25
2022/07/10 10:32:12;;;;;;;4.05;2.10;;;;;;;19.05;60.01;97278.78;10402984;28;20550;-24
2022/07/10 10:37:36;;;;;;;3.58;2.22;;;;;;;19.12;61.83;97280.50;10392581;28;20025;-23
2022/07/10 10:42:38;;;;;;;2.60;2.30;;;;;;;19.21;61.46;97267.91;10392612;28;20079;-23
2022/07/10 10:48:03;;;;;;;2.58;1.70;;;;;;;19.35;60.49;97274.75;10396680;28;20037;-23
2022/07/10 10:53:05;;;;;;;2.00;1.70;;;;;;;19.26;59.70;97271.34;10391119;28;20033;-24
2022/07/10 10:58:16;;;;;;;3.38;1.70;;;;;;;19.17;59.70;97276.34;10391517;28;20030;-23
2022/07/10 11:03:20;;;;;;;2.20;1.80;;;;;;;19.11;59.76;97264.47;10390155;28;20029;-24
2022/07/10 11:08:36;;;;;;;1.88;1.60;;;;;;;19.09;60.00;97261.03;10390078;28;20029;-23
2022/07/10 11:13:38;;;;;;;1.88;1.77;;;;;;;19.07;59.80;97261.84;10384414;28;20046;-24
2022/07/10 11:18:39;;;;;;;4.00;1.83;;;;;;;19.06;59.81;97250.00;10382409;28;20081;-23
2022/07/10 11:24:06;;;;;;;1.65;1.55;;;;;;;19.04;59.69;97257.63;10391214;28;20498;-23
2022/07/10 11:29:06;;;;;;;2.10;1.33;;;;;;;18.98;59.77;97239.81;10394487;28;20041;-24
2022/07/10 11:34:08;;;;;;;1.33;1.23;;;;;;;19.05;60.00;97248.31;10396272;28;20051;-23
2022/07/10 11:39:08;;;;;;;2.88;1.70;;;;;;;19.26;60.01;97240.88;10394963;28;20295;-22
2022/07/10 11:44:15;;;;;;;2.55;1.77;;;;;;;19.37;59.66;97231.59;10395556;28;20029;-24
2022/07/10 11:49:17;;;;;;;1.45;1.35;;;;;;;19.35;58.99;97235.84;10391575;28;20033;-25
2022/07/10 11:54:18;;;;;;;1.55;1.45;;;;;;;19.23;59.25;97235.75;10388310;28;20124;-25
2022/07/10 11:59:25;;;;;;;1.67;1.50;;;;;;;19.16;59.28;97241.63;10387349;28;20030;-24
2022/07/10 12:04:29;;;;;;;1.95;1.63;;;;;;;19.12;59.46;97239.91;10393944;28;20034;-24
2022/07/10 12:09:29;;;;;;;2.13;1.77;;;;;;;19.12;59.55;97238.22;10382411;28;20524;-24
2022/07/10 12:14:30;;;;;;;3.17;1.80;;;;;;;19.12;59.47;97240.78;10388909;28;20025;-24
2022/07/10 12:19:37;;;;;;;1.95;1.75;;;;;;;19.11;59.48;97235.66;10393015;28;20363;-24
2022/07/10 12:24:37;;;;;;;1.92;1.48;;;;;;;19.14;60.00;97228.06;10394019;28;20489;-23
2022/07/10 12:29:38;;;;;;;3.20;1.70;;;;;;;19.15;59.57;97233.16;10396069;28;20041;-22
2022/07/10 12:34:42;;;;;;;3.00;1.58;;;;;;;19.22;60.04;97239.16;10390457;28;20127;-23
2022/07/10 12:39:48;;;;;;;3.03;1.85;;;;;;;19.40;59.90;97236.69;10391351;28;20558;-24
2022/07/10 12:44:48;;;;;;;2.97;2.00;;;;;;;19.41;59.25;97235.88;10395841;28;20153;-20
2022/07/10 12:50:02;;;;;;;3.72;1.95;;;;;;;19.25;59.33;97229.84;10397960;28;20495;-24
2022/07/10 12:55:13;;;;;;;3.55;1.83;;;;;;;19.18;59.30;97230.63;10395763;28;20030;-23
2022/07/10 13:00:15;;;;;;;1.40;1.15;;;;;;;19.19;59.50;97242.50;10391663;28;20118;-24
2022/07/10 13:05:27;;;;;;;1.98;1.52;;;;;;;19.17;59.54;97233.19;10392336;28;20512;-23
2022/07/10 13:10:27;;;;;;;3.70;1.50;;;;;;;19.16;59.47;97228.94;10392906;28;20087;-24
2022/07/10 13:15:29;;;;;;;1.80;1.33;;;;;;;19.16;59.46;97231.47;10398383;28;20034;-23
2022/07/10 13:20:29;;;;;;;4.63;1.70;;;;;;;19.18;60.22;97234.88;10391877;28;20283;-24
2022/07/10 13:25:30;;;;;;;2.78;2.03;;;;;;;19.16;59.55;97234.03;10392177;28;20029;-23
2022/07/10 13:30:31;;;;;;;2.42;1.45;;;;;;;19.16;59.11;97227.25;10394335;28;20573;-25
2022/07/10 13:35:33;;;;;;;2.47;1.38;;;;;;;19.31;59.22;97232.44;10395289;28;20033;-24
2022/07/10 13:40:35;;;;;;;1.33;1.20;;;;;;;19.46;58.77;97231.66;10388761;28;20037;-23
2022/07/10 13:45:45;;;;;;;2.25;1.38;;;;;;;19.45;58.76;97229.94;10389949;28;20547;-23
2022/07/10 13:50:47;;;;;;;2.08;1.58;;;;;;;19.33;58.82;97220.59;10390245;28;20412;-22
2022/07/10 13:55:48;;;;;;;3.28;1.60;;;;;;;19.28;58.95;97231.56;10385131;28;20069;-22
2022/07/10 14:00:48;;;;;;;2.65;1.30;;;;;;;19.24;59.06;97229.88;10393543;28;20052;-24
2022/07/10 14:05:49;;;;;;;4.50;2.13;;;;;;;19.22;59.19;97229.00;10390226;28;20053;-25
2022/07/10 14:10:49;;;;;;;1.80;1.30;;;;;;;19.22;59.28;97218.84;10394082;28;20033;-24
2022/07/10 14:15:50;;;;;;;1.40;1.30;;;;;;;19.18;59.15;97214.56;10396369;28;20029;-24
2022/07/10 14:21:02;;;;;;;1.20;1.10;;;;;;;19.18;59.30;97219.66;10394499;28;20038;-22
2022/07/10 14:26:05;;;;;;;4.20;1.73;;;;;;;19.25;59.48;97216.34;10392919;28;20125;-24
2022/07/10 14:31:06;;;;;;;2.22;1.30;;;;;;;19.45;58.72;97219.78;10395281;28;20034;-23
2022/07/10 14:36:07;;;;;;;2.35;1.73;;;;;;;19.53;58.45;97219.00;10400529;28;20052;-23
2022/07/10 14:41:07;;;;;;;1.15;1.05;;;;;;;19.45;58.51;97220.66;10398110;28;20116;-23
2022/07/10 14:46:09;;;;;;;2.13;1.20;;;;;;;19.34;58.81;97226.53;10397058;28;20179;-24
2022/07/10 14:51:09;;;;;;;1.65;1.20;;;;;;;19.27;59.04;97219.72;10400968;28;20060;-24
2022/07/10 14:56:11;;;;;;;2.58;1.30;;;;;;;19.24;58.89;97215.47;10399646;28;20112;-25
2022/07/10 15:01:12;;;;;;;4.50;1.60;;;;;;;19.28;59.05;97221.41;10405344;28;20108;-24
2022/07/10 15:06:13;;;;;;;3.25;1.13;;;;;;;19.27;59.09;97217.19;10397238;28;20403;-24
2022/07/10 15:11:13;;;;;;;1.40;1.30;;;;;;;19.25;58.95;97222.25;10402637;28;20575;-22
2022/07/10 15:16:14;;;;;;;2.90;1.73;;;;;;;19.22;59.19;97208.69;10398606;28;20440;-24
2022/07/10 15:21:14;;;;;;;1.67;1.20;;;;;;;19.22;59.22;97206.13;10389582;28;20090;-25
2022/07/10 15:26:15;;;;;;;1.55;1.30;;;;;;;19.35;58.87;97200.28;10388817;28;20037;-23
2022/07/10 15:31:15;;;;;;;2.83;1.10;;;;;;;19.52;58.25;97204.56;10388610;28;20125;-23
2022/07/10 15:36:16;;;;;;;2.30;1.30;;;;;;;19.56;58.07;97205.44;10393154;28;20321;-23
2022/07/10 15:41:16;;;;;;;1.27;1.13;;;;;;;19.45;58.18;97197.81;10394256;28;20296;-24
2022/07/10 15:46:17;;;;;;;3.90;2.30;;;;;;;19.36;58.66;97189.28;10394855;28;20292;-24
2022/07/10 15:51:17;;;;;;;5.35;1.17;;;;;;;19.26;58.71;97192.63;10399129;28;20116;-21
2022/07/10 15:56:18;;;;;;;0.90;0.70;;;;;;;19.31;58.79;97193.47;10395633;28;20036;-24
2022/07/10 16:01:18;;;;;;;2.72;1.50;;;;;;;19.28;59.02;97201.09;10396666;28;20127;-23
2022/07/10 16:06:20;;;;;;;3.63;1.00;;;;;;;19.26;58.95;97195.19;10392477;28;20033;-25
2022/07/10 16:11:22;;;;;;;6.45;2.00;;;;;;;19.25;58.96;97194.31;10397035;28;20029;-24
2022/07/10 16:16:22;;;;;;;3.45;1.00;;;;;;;19.29;58.90;97197.72;10399194;28;20034;-22
2022/07/10 16:21:24;;;;;;;2.10;1.00;;;;;;;19.53;57.96;97195.28;10393188;28;20049;-24
2022/07/10 16:26:24;;;;;;;2.25;1.10;;;;;;;19.62;57.75;97182.59;10388176;28;20026;-23
2022/07/10 16:31:25;;;;;;;1.30;1.00;;;;;;;19.50;58.02;97190.19;10398178;28;20095;-24
2022/07/10 16:36:25;;;;;;;1.55;0.93;;;;;;;19.42;58.42;97186.78;10395552;28;20048;-24
2022/07/10 16:41:26;;;;;;;1.87;0.83;;;;;;;19.34;58.74;97179.13;10394435;28;20037;-25
2022/07/10 16:46:27;;;;;;;2.55;1.00;;;;;;;19.31;58.83;97171.50;10395720;28;20040;-25
2022/07/10 16:51:27;;;;;;;4.45;1.30;;;;;;;19.28;58.90;97175.72;10392881;28;20107;-24
2022/07/10 16:56:28;;;;;;;2.73;0.80;;;;;;;19.27;58.87;97169.78;10383459;28;20033;-25
2022/07/10 17:01:28;;;;;;;1.30;1.20;;;;;;;19.25;58.96;97168.09;10390733;28;20060;-24
2022/07/10 17:06:29;;;;;;;2.35;1.10;;;;;;;19.26;58.94;97169.78;10381523;28;20641;-24
2022/07/10 17:11:29;;;;;;;2.50;1.00;;;;;;;19.25;58.87;97168.94;10391338;28;20420;-25
2022/07/10 17:16:30;;;;;;;1.73;0.70;;;;;;;19.44;58.02;97159.69;10396913;28;20500;-23
2022/07/10 17:21:30;;;;;;;3.00;0.90;;;;;;;19.62;57.50;97177.53;10391909;28;20034;-23
2022/07/10 17:26:31;;;;;;;2.37;0.70;;;;;;;19.55;57.88;97176.66;10392301;28;20041;-23
2022/07/10 17:31:31;;;;;;;1.50;0.80;;;;;;;19.55;58.70;97175.81;10387180;28;20038;-23
2022/07/10 17:36:32;;;;;;;3.30;0.87;;;;;;;19.48;58.77;97189.31;10394396;28;20174;-24
2022/07/10 17:41:33;;;;;;;0.77;0.77;;;;;;;19.50;58.54;97188.50;10393307;28;20033;-23
2022/07/10 17:46:34;;;;;;;1.03;0.70;;;;;;;19.52;58.58;97191.03;10390405;28;20030;-23
2022/07/10 17:51:34;;;;;;;1.95;1.10;;;;;;;19.53;58.56;97187.66;10384510;28;20026;-26
2022/07/10 17:56:35;;;;;;;2.40;1.20;;;;;;;19.53;58.41;97195.28;10381935;28;20033;-23
2022/07/10 18:01:36;;;;;;;0.75;0.65;;;;;;;19.54;58.52;97194.44;10380092;28;20045;-24
2022/07/10 18:06:36;;;;;;;1.15;0.93;;;;;;;19.47;58.44;97182.53;10383464;28;20045;-22
2022/07/10 18:11:36;;;;;;;1.13;0.70;;;;;;;19.66;57.35;97194.50;10396447;28;20036;-24
2022/07/10 18:16:37;;;;;;;2.30;0.77;;;;;;;19.69;57.28;97197.84;10396541;28;20492;-22
2022/07/10 18:21:37;;;;;;;0.90;0.80;;;;;;;19.54;58.11;97194.44;10396296;28;20083;-24
2022/07/10 18:26:38;;;;;;;0.82;0.60;;;;;;;19.57;58.26;97209.66;10393459;28;20083;-23
2022/07/10 18:31:40;;;;;;;1.38;1.10;;;;;;;19.55;58.33;97211.38;10389501;28;20092;-26
2022/07/10 18:36:41;;;;;;;1.35;1.00;;;;;;;19.52;58.47;97212.19;10393718;28;20062;-25
2022/07/10 18:41:42;;;;;;;1.10;0.63;;;;;;;19.52;58.46;97216.44;10395574;28;20033;-23
2022/07/10 18:46:42;;;;;;;0.97;0.90;;;;;;;19.50;58.51;97213.88;10396121;28;20065;-22
2022/07/10 18:51:43;;;;;;;0.97;0.70;;;;;;;19.54;58.34;97224.91;10384482;28;20378;-24
2022/07/10 18:56:43;;;;;;;2.13;0.63;;;;;;;19.64;56.69;97224.09;10391798;28;20782;-24
2022/07/10 19:01:44;;;;;;;0.80;0.60;;;;;;;19.63;57.15;97235.09;10391663;28;20412;-23
2022/07/10 19:06:44;;;;;;;2.77;0.90;;;;;;;19.75;55.40;97238.53;10391813;28;20308;-22
2022/07/10 19:11:45;;;;;;;0.75;0.70;;;;;;;19.69;57.31;97240.22;10392401;28;20311;-23
2022/07/10 19:16:45;;;;;;;0.77;0.68;;;;;;;19.61;57.83;97246.97;10394501;28;20122;-25
2022/07/10 19:21:46;;;;;;;3.53;0.90;;;;;;;19.46;58.50;97246.88;10389127;28;20045;-24
2022/07/10 19:26:46;;;;;;;1.63;0.80;;;;;;;19.38;58.62;97259.56;10385686;28;20037;-25
2022/07/10 19:31:46;;;;;;;3.30;0.80;;;;;;;19.41;58.47;97263.81;10388062;28;20037;-24
2022/07/10 19:36:47;;;;;;;1.80;0.75;;;;;;;19.36;58.41;97260.38;10392715;28;20037;-25
2022/07/10 19:41:47;;;;;;;1.35;0.80;;;;;;;19.33;58.36;97265.47;10390077;28;20120;-23
2022/07/10 19:46:48;;;;;;;0.60;0.60;;;;;;;19.31;57.96;97267.13;10393119;28;20038;-28
2022/07/10 19:51:48;;;;;;;2.93;0.80;;;;;;;19.37;57.14;97268.03;10386309;28;20087;-23
2022/07/10 19:56:49;;;;;;;1.10;0.63;;;;;;;19.36;57.18;97273.09;10384127;28;20290;-24
2022/07/10 20:01:49;;;;;;;1.80;0.80;;;;;;;19.33;58.01;97280.69;10379278;28;20042;-25
2022/07/10 20:06:49;;;;;;;0.97;0.77;;;;;;;19.28;57.82;97284.88;10387678;28;20045;-24
2022/07/10 20:11:50;;;;;;;1.90;1.07;;;;;;;19.20;57.78;97283.97;10391951;28;20037;-24
2022/07/10 20:16:50;;;;;;;2.60;0.80;;;;;;;19.22;57.61;97295.00;10392599;28;20663;-24
2022/07/10 20:21:52;;;;;;;1.27;0.65;;;;;;;19.25;57.78;97303.47;10380808;28;20069;-23
2022/07/10 20:26:52;;;;;;;1.90;0.75;;;;;;;19.22;57.88;97308.53;10390124;28;20026;-24
2022/07/10 20:31:52;;;;;;;1.00;0.57;;;;;;;19.20;58.22;97311.91;10390614;28;20106;-23
2022/07/10 20:42:12;;;;;;;2.25;0.90;;;;;;;19.25;57.09;97312.81;10389537;28;20025;-24
2022/07/10 20:47:12;;;;;;;1.55;0.75;;;;;;;19.25;57.17;97312.81;10391056;28;20504;-22
2022/07/10 20:52:13;;;;;;;0.63;0.63;;;;;;;19.22;57.89;97312.75;10381618;28;20451;-24
2022/07/10 20:57:13;;;;;;;1.17;0.60;;;;;;;19.21;57.68;97326.28;10386815;28;20291;-23
2022/07/10 21:02:16;;;;;;;1.70;0.90;;;;;;;19.17;57.84;97322.03;10391757;28;20116;-24
2022/07/10 21:07:16;;;;;;;5.85;0.93;;;;;;;19.16;57.93;97327.94;10395567;28;20037;-23
2022/07/10 21:12:18;;;;;;;4.53;0.63;;;;;;;18.77;56.80;97332.69;10391415;28;20233;-24
2022/07/10 21:17:18;;;;;;;2.55;0.88;;;;;;;18.44;55.50;97345.06;10393649;28;20342;-24
2022/07/10 21:22:18;;;;;;;3.67;0.70;;;;;;;18.28;54.93;97331.34;10391386;28;20045;-24
2022/07/10 21:27:19;;;;;;;1.53;0.67;;;;;;;18.25;54.70;97345.69;10391426;28;20809;-24
2022/07/10 21:32:19;;;;;;;1.70;0.90;;;;;;;18.24;54.51;97349.06;10393843;28;20412;-26
2022/07/10 21:37:20;;;;;;;1.50;0.73;;;;;;;18.17;54.68;97342.22;10386888;28;20107;-23
2022/07/10 21:42:21;;;;;;;2.90;0.77;;;;;;;18.15;54.62;97338.81;10388057;28;20284;-24
2022/07/10 21:47:22;;;;;;;3.05;1.25;;;;;;;18.07;54.80;97331.09;10393895;28;20030;-23
2022/07/10 21:52:23;;;;;;;0.90;0.77;;;;;;;18.07;54.68;97335.34;10385039;28;20029;-23
2022/07/10 21:57:23;;;;;;;2.70;0.83;;;;;;;17.97;55.18;97329.31;10388366;28;20092;-23
2022/07/10 22:02:23;;;;;;;1.77;0.97;;;;;;;18.00;54.57;97328.50;10382974;28;20029;-25
2022/07/10 22:07:24;;;;;;;1.50;0.80;;;;;;;17.96;54.69;97337.75;10386951;28;20034;-24
2022/07/10 22:12:25;;;;;;;1.42;0.95;;;;;;;17.95;54.39;97336.06;10391296;28;20139;-25
2022/07/10 22:17:25;;;;;;;2.60;0.88;;;;;;;17.89;54.88;97318.25;10397660;28;20291;-24
2022/07/10 22:22:26;;;;;;;0.93;0.60;;;;;;;17.89;54.56;97317.38;10389446;28;20041;-27
2022/07/10 22:27:26;;;;;;;2.35;0.80;;;;;;;17.80;54.28;97309.66;10394113;28;20037;-25
2022/07/10 22:32:27;;;;;;;1.53;0.97;;;;;;;17.87;54.17;97311.44;10390230;28;20041;-23
2022/07/10 22:37:27;;;;;;;3.22;0.88;;;;;;;17.87;53.85;97308.91;10391562;28;20081;-24
2022/07/10 22:42:27;;;;;;;1.83;0.60;;;;;;;17.80;53.89;97322.34;10391742;28;20034;-25
2022/07/10 22:47:28;;;;;;;2.20;0.98;;;;;;;17.76;53.97;97315.53;10390550;28;20172;-24
2022/07/10 22:52:28;;;;;;;1.43;0.73;;;;;;;17.75;54.25;97316.38;10394168;28;20045;-24
2022/07/10 22:57:28;;;;;;;2.67;0.67;;;;;;;17.70;54.06;97311.25;10401041;28;20035;-25
2022/07/10 23:02:29;;;;;;;1.30;0.50;;;;;;;17.67;54.31;97302.78;10402650;28;20036;-25
2022/07/10 23:07:29;;;;;;;0.97;0.50;;;;;;;17.65;54.34;97299.38;10402537;28;20029;-25
2022/07/10 23:12:34;;;;;;;0.70;0.67;;;;;;;17.48;53.69;97298.31;10397531;28;20287;-23
2022/07/10 23:17:35;;;;;;;2.45;0.80;;;;;;;17.45;54.86;97295.72;10404286;28;20058;-24
2022/07/10 23:22:35;;;;;;;2.40;0.80;;;;;;;17.49;54.70;97302.53;10395102;28;20122;-23
2022/07/10 23:27:36;;;;;;;2.20;0.98;;;;;;;17.49;54.74;97310.13;10391478;28;20033;-24
2022/07/10 23:32:37;;;;;;;2.65;0.88;;;;;;;17.51;54.83;97306.78;10393430;28;20436;-24